sensor_id;sensor_type;location;lat;lon;timestamp;P1;P2;P0
61592;PMS5003;47485;51.378;-1.342;2023-04-25T00:01:30;8;8;
61592;PMS5003;47485;51.378;-1.342;2023-04-25T00:03:58;13;12;
61592;PMS5003;47485;51.378;-1.342;2023-04-25T00:06:24;11;11;
61592;PMS5003;47485;51.378;-1.342;2023-04-25T00:08:51;13;10;
61592;PMS5003;47485;51.378;-1.342;2023-04-25T00:11:19;14;11;
61592;PMS5003;47485;51.378;-1.342;2023-04-25T00:13:46;20;18;
61592;PMS5003;47485;51.378;-1.342;2023-04-25T00:16:13;12;9;
61592;PMS5003;47485;51.378;-1.342;2023-04-25T00:18:41;11;10;
61592;PMS5003;47485;51.378;-1.342;2023-04-25T00:21:08;11;10;
61592;PMS5003;47485;51.378;-1.342;2023-04-25T00:23:36;10;8;
61592;PMS5003;47485;51.378;-1.342;2023-04-25T00:26:04;9;9;
61592;PMS5003;47485;51.378;-1.342;2023-04-25T00:28:31;13;10;
61592;PMS5003;47485;51.378;-1.342;2023-04-25T00:30:57;15;13;
61592;PMS5003;47485;51.378;-1.342;2023-04-25T00:33:25;10;10;
61592;PMS5003;47485;51.378;-1.342;2023-04-25T00:35:52;11;10;
61592;PMS5003;47485;51.378;-1.342;2023-04-25T00:38:20;11;10;
61592;PMS5003;47485;51.378;-1.342;2023-04-25T00:40:48;10;9;
61592;PMS5003;47485;51.378;-1.342;2023-04-25T00:43:15;10;9;
61592;PMS5003;47485;51.378;-1.342;2023-04-25T00:45:42;12;7;
61592;PMS5003;47485;51.378;-1.342;2023-04-25T00:48:09;14;8;
61592;PMS5003;47485;51.378;-1.342;2023-04-25T00:50:37;12;10;
61592;PMS5003;47485;51.378;-1.342;2023-04-25T00:53:04;9;7;
61592;PMS5003;47485;51.378;-1.342;2023-04-25T00:55:32;11;8;
61592;PMS5003;47485;51.378;-1.342;2023-04-25T00:57:59;10;6;
61592;PMS5003;47485;51.378;-1.342;2023-04-25T01:00:26;11;9;
61592;PMS5003;47485;51.378;-1.342;2023-04-25T01:02:54;11;8;
61592;PMS5003;47485;51.378;-1.342;2023-04-25T01:05:21;9;8;
61592;PMS5003;47485;51.378;-1.342;2023-04-25T01:07:47;8;8;
61592;PMS5003;47485;51.378;-1.342;2023-04-25T01:10:15;8;7;
61592;PMS5003;47485;51.378;-1.342;2023-04-25T01:12:41;9;7;
61592;PMS5003;47485;51.378;-1.342;2023-04-25T01:15:09;13;8;
61592;PMS5003;47485;51.378;-1.342;2023-04-25T01:17:37;7;5;
61592;PMS5003;47485;51.378;-1.342;2023-04-25T01:20:04;8;6;
61592;PMS5003;47485;51.378;-1.342;2023-04-25T01:22:33;7;7;
61592;PMS5003;47485;51.378;-1.342;2023-04-25T01:25:01;6;4;
61592;PMS5003;47485;51.378;-1.342;2023-04-25T01:27:28;11;9;
61592;PMS5003;47485;51.378;-1.342;2023-04-25T01:29:56;9;6;
61592;PMS5003;47485;51.378;-1.342;2023-04-25T01:32:24;6;6;
61592;PMS5003;47485;51.378;-1.342;2023-04-25T01:34:52;4;4;
61592;PMS5003;47485;51.378;-1.342;2023-04-25T01:37:19;6;6;
61592;PMS5003;47485;51.378;-1.342;2023-04-25T01:39:46;8;7;
61592;PMS5003;47485;51.378;-1.342;2023-04-25T01:42:13;8;4;
61592;PMS5003;47485;51.378;-1.342;2023-04-25T01:44:41;8;7;
61592;PMS5003;47485;51.378;-1.342;2023-04-25T01:47:08;10;5;
61592;PMS5003;47485;51.378;-1.342;2023-04-25T01:49:35;11;8;
61592;PMS5003;47485;51.378;-1.342;2023-04-25T01:52:02;4;4;
61592;PMS5003;47485;51.378;-1.342;2023-04-25T01:54:29;6;6;
61592;PMS5003;47485;51.378;-1.342;2023-04-25T01:56:57;6;4;
61592;PMS5003;47485;51.378;-1.342;2023-04-25T01:59:23;9;7;
61592;PMS5003;47485;51.378;-1.342;2023-04-25T02:01:50;8;5;
61592;PMS5003;47485;51.378;-1.342;2023-04-25T02:04:17;10;6;
61592;PMS5003;47485;51.378;-1.342;2023-04-25T02:06:44;8;6;
61592;PMS5003;47485;51.378;-1.342;2023-04-25T02:09:11;7;4;
61592;PMS5003;47485;51.378;-1.342;2023-04-25T02:11:38;4;4;
61592;PMS5003;47485;51.378;-1.342;2023-04-25T02:14:04;6;6;
61592;PMS5003;47485;51.378;-1.342;2023-04-25T02:16:31;4;4;
61592;PMS5003;47485;51.378;-1.342;2023-04-25T02:18:58;6;5;
61592;PMS5003;47485;51.378;-1.342;2023-04-25T02:21:25;11;10;
61592;PMS5003;47485;51.378;-1.342;2023-04-25T02:23:52;8;5;
61592;PMS5003;47485;51.378;-1.342;2023-04-25T02:26:19;6;4;
61592;PMS5003;47485;51.378;-1.342;2023-04-25T02:28:47;5;4;
61592;PMS5003;47485;51.378;-1.342;2023-04-25T02:31:14;5;4;
61592;PMS5003;47485;51.378;-1.342;2023-04-25T02:33:41;7;6;
61592;PMS5003;47485;51.378;-1.342;2023-04-25T02:36:09;6;4;
61592;PMS5003;47485;51.378;-1.342;2023-04-25T02:38:36;6;6;
61592;PMS5003;47485;51.378;-1.342;2023-04-25T02:41:04;5;4;
61592;PMS5003;47485;51.378;-1.342;2023-04-25T02:43:30;4;4;
61592;PMS5003;47485;51.378;-1.342;2023-04-25T02:45:58;5;5;
61592;PMS5003;47485;51.378;-1.342;2023-04-25T02:48:26;6;4;
61592;PMS5003;47485;51.378;-1.342;2023-04-25T02:50:53;4;3;
61592;PMS5003;47485;51.378;-1.342;2023-04-25T02:53:20;5;4;
61592;PMS5003;47485;51.378;-1.342;2023-04-25T02:55:47;7;5;
61592;PMS5003;47485;51.378;-1.342;2023-04-25T02:58:15;3;3;
61592;PMS5003;47485;51.378;-1.342;2023-04-25T03:00:42;4;3;
61592;PMS5003;47485;51.378;-1.342;2023-04-25T03:03:08;6;4;
61592;PMS5003;47485;51.378;-1.342;2023-04-25T03:05:35;2;2;
61592;PMS5003;47485;51.378;-1.342;2023-04-25T03:08:03;2;1;
61592;PMS5003;47485;51.378;-1.342;2023-04-25T03:10:31;5;3;
61592;PMS5003;47485;51.378;-1.342;2023-04-25T03:12:58;4;4;
61592;PMS5003;47485;51.378;-1.342;2023-04-25T03:15:25;5;2;
61592;PMS5003;47485;51.378;-1.342;2023-04-25T03:17:53;8;3;
61592;PMS5003;47485;51.378;-1.342;2023-04-25T03:20:19;5;4;
61592;PMS5003;47485;51.378;-1.342;2023-04-25T03:22:47;4;4;
61592;PMS5003;47485;51.378;-1.342;2023-04-25T03:25:15;4;2;
61592;PMS5003;47485;51.378;-1.342;2023-04-25T03:27:42;10;8;
61592;PMS5003;47485;51.378;-1.342;2023-04-25T03:30:09;4;2;
61592;PMS5003;47485;51.378;-1.342;2023-04-25T03:32:36;5;5;
61592;PMS5003;47485;51.378;-1.342;2023-04-25T03:35:04;5;3;
61592;PMS5003;47485;51.378;-1.342;2023-04-25T03:37:31;6;4;
61592;PMS5003;47485;51.378;-1.342;2023-04-25T03:39:58;3;3;
61592;PMS5003;47485;51.378;-1.342;2023-04-25T03:42:26;1;1;
61592;PMS5003;47485;51.378;-1.342;2023-04-25T03:44:52;7;2;
61592;PMS5003;47485;51.378;-1.342;2023-04-25T03:47:19;8;5;
61592;PMS5003;47485;51.378;-1.342;2023-04-25T03:49:46;3;3;
61592;PMS5003;47485;51.378;-1.342;2023-04-25T03:52:13;5;4;
61592;PMS5003;47485;51.378;-1.342;2023-04-25T03:54:41;6;2;
61592;PMS5003;47485;51.378;-1.342;2023-04-25T03:57:08;3;3;
61592;PMS5003;47485;51.378;-1.342;2023-04-25T03:59:34;7;5;
61592;PMS5003;47485;51.378;-1.342;2023-04-25T04:02:02;4;4;
61592;PMS5003;47485;51.378;-1.342;2023-04-25T04:04:29;4;4;
61592;PMS5003;47485;51.378;-1.342;2023-04-25T04:06:56;6;4;
61592;PMS5003;47485;51.378;-1.342;2023-04-25T04:09:23;7;5;
61592;PMS5003;47485;51.378;-1.342;2023-04-25T04:11:50;6;5;
61592;PMS5003;47485;51.378;-1.342;2023-04-25T04:14:17;7;3;
61592;PMS5003;47485;51.378;-1.342;2023-04-25T04:16:44;5;5;
61592;PMS5003;47485;51.378;-1.342;2023-04-25T04:19:11;10;6;
61592;PMS5003;47485;51.378;-1.342;2023-04-25T04:21:38;6;5;
61592;PMS5003;47485;51.378;-1.342;2023-04-25T04:24:05;4;4;
61592;PMS5003;47485;51.378;-1.342;2023-04-25T04:26:32;7;6;
61592;PMS5003;47485;51.378;-1.342;2023-04-25T04:29:00;6;4;
61592;PMS5003;47485;51.378;-1.342;2023-04-25T04:31:27;3;3;
61592;PMS5003;47485;51.378;-1.342;2023-04-25T04:33:55;4;4;
61592;PMS5003;47485;51.378;-1.342;2023-04-25T04:36:21;9;5;
61592;PMS5003;47485;51.378;-1.342;2023-04-25T04:38:48;4;4;
61592;PMS5003;47485;51.378;-1.342;2023-04-25T04:41:15;6;5;
61592;PMS5003;47485;51.378;-1.342;2023-04-25T04:43:43;8;4;
61592;PMS5003;47485;51.378;-1.342;2023-04-25T04:46:10;8;5;
61592;PMS5003;47485;51.378;-1.342;2023-04-25T04:48:37;5;5;
61592;PMS5003;47485;51.378;-1.342;2023-04-25T04:51:04;11;6;
61592;PMS5003;47485;51.378;-1.342;2023-04-25T04:53:30;7;6;
61592;PMS5003;47485;51.378;-1.342;2023-04-25T04:55:57;7;6;
61592;PMS5003;47485;51.378;-1.342;2023-04-25T04:58:24;8;6;
61592;PMS5003;47485;51.378;-1.342;2023-04-25T05:00:51;7;6;
61592;PMS5003;47485;51.378;-1.342;2023-04-25T05:03:19;4;4;
61592;PMS5003;47485;51.378;-1.342;2023-04-25T05:05:46;6;5;
61592;PMS5003;47485;51.378;-1.342;2023-04-25T05:08:13;9;7;
61592;PMS5003;47485;51.378;-1.342;2023-04-25T05:10:39;9;7;
61592;PMS5003;47485;51.378;-1.342;2023-04-25T05:13:06;6;6;
61592;PMS5003;47485;51.378;-1.342;2023-04-25T05:15:34;12;11;
61592;PMS5003;47485;51.378;-1.342;2023-04-25T05:18:01;9;6;
61592;PMS5003;47485;51.378;-1.342;2023-04-25T05:20:28;14;11;
61592;PMS5003;47485;51.378;-1.342;2023-04-25T05:22:55;12;12;
61592;PMS5003;47485;51.378;-1.342;2023-04-25T05:25:22;10;9;
61592;PMS5003;47485;51.378;-1.342;2023-04-25T05:27:49;12;9;
61592;PMS5003;47485;51.378;-1.342;2023-04-25T05:30:16;9;9;
61592;PMS5003;47485;51.378;-1.342;2023-04-25T05:32:43;12;9;
61592;PMS5003;47485;51.378;-1.342;2023-04-25T05:35:10;10;9;
61592;PMS5003;47485;51.378;-1.342;2023-04-25T05:37:37;10;8;
61592;PMS5003;47485;51.378;-1.342;2023-04-25T05:40:05;10;8;
61592;PMS5003;47485;51.378;-1.342;2023-04-25T05:42:33;16;11;
61592;PMS5003;47485;51.378;-1.342;2023-04-25T05:45:00;11;10;
61592;PMS5003;47485;51.378;-1.342;2023-04-25T05:47:27;10;10;
61592;PMS5003;47485;51.378;-1.342;2023-04-25T05:49:54;13;12;
61592;PMS5003;47485;51.378;-1.342;2023-04-25T05:52:21;17;15;
61592;PMS5003;47485;51.378;-1.342;2023-04-25T05:54:48;10;10;
61592;PMS5003;47485;51.378;-1.342;2023-04-25T05:57:20;13;13;
61592;PMS5003;47485;51.378;-1.342;2023-04-25T05:59:49;10;7;
61592;PMS5003;47485;51.378;-1.342;2023-04-25T06:02:16;14;13;
61592;PMS5003;47485;51.378;-1.342;2023-04-25T06:04:45;10;9;
61592;PMS5003;47485;51.378;-1.342;2023-04-25T06:07:12;11;10;
61592;PMS5003;47485;51.378;-1.342;2023-04-25T06:09:39;9;9;
61592;PMS5003;47485;51.378;-1.342;2023-04-25T06:12:06;11;9;
61592;PMS5003;47485;51.378;-1.342;2023-04-25T06:14:33;12;11;
61592;PMS5003;47485;51.378;-1.342;2023-04-25T06:17:02;12;8;
61592;PMS5003;47485;51.378;-1.342;2023-04-25T06:19:29;9;9;
61592;PMS5003;47485;51.378;-1.342;2023-04-25T06:21:56;9;9;
61592;PMS5003;47485;51.378;-1.342;2023-04-25T06:24:23;8;8;
61592;PMS5003;47485;51.378;-1.342;2023-04-25T06:26:50;8;7;
61592;PMS5003;47485;51.378;-1.342;2023-04-25T06:29:17;12;8;
61592;PMS5003;47485;51.378;-1.342;2023-04-25T06:31:44;8;7;
61592;PMS5003;47485;51.378;-1.342;2023-04-25T06:34:10;7;7;
61592;PMS5003;47485;51.378;-1.342;2023-04-25T06:36:37;7;6;
61592;PMS5003;47485;51.378;-1.342;2023-04-25T06:39:04;9;8;
61592;PMS5003;47485;51.378;-1.342;2023-04-25T06:41:31;11;7;
61592;PMS5003;47485;51.378;-1.342;2023-04-25T06:43:58;9;6;
61592;PMS5003;47485;51.378;-1.342;2023-04-25T06:46:26;15;13;
61592;PMS5003;47485;51.378;-1.342;2023-04-25T06:48:53;10;8;
61592;PMS5003;47485;51.378;-1.342;2023-04-25T06:51:21;9;6;
61592;PMS5003;47485;51.378;-1.342;2023-04-25T06:53:49;9;7;
61592;PMS5003;47485;51.378;-1.342;2023-04-25T06:56:16;7;7;
61592;PMS5003;47485;51.378;-1.342;2023-04-25T06:58:43;10;6;
61592;PMS5003;47485;51.378;-1.342;2023-04-25T07:01:09;7;5;
61592;PMS5003;47485;51.378;-1.342;2023-04-25T07:03:37;10;8;
61592;PMS5003;47485;51.378;-1.342;2023-04-25T07:06:04;11;8;
61592;PMS5003;47485;51.378;-1.342;2023-04-25T07:08:31;11;9;
61592;PMS5003;47485;51.378;-1.342;2023-04-25T07:10:58;9;8;
61592;PMS5003;47485;51.378;-1.342;2023-04-25T07:13:25;10;10;
61592;PMS5003;47485;51.378;-1.342;2023-04-25T07:15:52;9;7;
61592;PMS5003;47485;51.378;-1.342;2023-04-25T07:18:19;6;4;
61592;PMS5003;47485;51.378;-1.342;2023-04-25T07:20:45;14;11;
61592;PMS5003;47485;51.378;-1.342;2023-04-25T07:23:12;10;8;
61592;PMS5003;47485;51.378;-1.342;2023-04-25T07:25:39;5;5;
61592;PMS5003;47485;51.378;-1.342;2023-04-25T07:28:06;11;8;
61592;PMS5003;47485;51.378;-1.342;2023-04-25T07:30:32;14;8;
61592;PMS5003;47485;51.378;-1.342;2023-04-25T07:32:59;9;7;
61592;PMS5003;47485;51.378;-1.342;2023-04-25T07:35:27;7;5;
61592;PMS5003;47485;51.378;-1.342;2023-04-25T07:37:53;7;6;
61592;PMS5003;47485;51.378;-1.342;2023-04-25T07:40:20;5;4;
61592;PMS5003;47485;51.378;-1.342;2023-04-25T07:42:46;9;5;
61592;PMS5003;47485;51.378;-1.342;2023-04-25T07:45:13;3;3;
61592;PMS5003;47485;51.378;-1.342;2023-04-25T07:47:40;5;5;
61592;PMS5003;47485;51.378;-1.342;2023-04-25T07:50:07;6;4;
61592;PMS5003;47485;51.378;-1.342;2023-04-25T07:52:34;7;6;
61592;PMS5003;47485;51.378;-1.342;2023-04-25T07:55:02;9;8;
61592;PMS5003;47485;51.378;-1.342;2023-04-25T07:57:29;6;4;
61592;PMS5003;47485;51.378;-1.342;2023-04-25T07:59:56;7;5;
61592;PMS5003;47485;51.378;-1.342;2023-04-25T08:02:22;6;4;
61592;PMS5003;47485;51.378;-1.342;2023-04-25T08:04:49;5;4;
61592;PMS5003;47485;51.378;-1.342;2023-04-25T08:07:16;9;4;
61592;PMS5003;47485;51.378;-1.342;2023-04-25T08:09:44;1;1;
61592;PMS5003;47485;51.378;-1.342;2023-04-25T08:12:11;6;5;
61592;PMS5003;47485;51.378;-1.342;2023-04-25T08:14:37;7;3;
61592;PMS5003;47485;51.378;-1.342;2023-04-25T08:17:04;5;3;
61592;PMS5003;47485;51.378;-1.342;2023-04-25T08:19:31;3;3;
61592;PMS5003;47485;51.378;-1.342;2023-04-25T08:21:57;4;3;
61592;PMS5003;47485;51.378;-1.342;2023-04-25T08:24:24;5;5;
61592;PMS5003;47485;51.378;-1.342;2023-04-25T08:26:51;7;4;
61592;PMS5003;47485;51.378;-1.342;2023-04-25T08:29:18;4;2;
61592;PMS5003;47485;51.378;-1.342;2023-04-25T08:31:44;4;2;
61592;PMS5003;47485;51.378;-1.342;2023-04-25T08:34:11;3;3;
61592;PMS5003;47485;51.378;-1.342;2023-04-25T08:36:38;2;2;
61592;PMS5003;47485;51.378;-1.342;2023-04-25T08:39:05;5;2;
61592;PMS5003;47485;51.378;-1.342;2023-04-25T08:41:32;2;2;
61592;PMS5003;47485;51.378;-1.342;2023-04-25T08:43:59;4;2;
61592;PMS5003;47485;51.378;-1.342;2023-04-25T08:46:27;4;2;
61592;PMS5003;47485;51.378;-1.342;2023-04-25T08:48:55;8;1;
61592;PMS5003;47485;51.378;-1.342;2023-04-25T08:51:27;2;1;
61592;PMS5003;47485;51.378;-1.342;2023-04-25T08:54:00;8;3;
61592;PMS5003;47485;51.378;-1.342;2023-04-25T08:56:35;3;2;
61592;PMS5003;47485;51.378;-1.342;2023-04-25T08:59:04;2;1;
61592;PMS5003;47485;51.378;-1.342;2023-04-25T09:01:31;1;1;
61592;PMS5003;47485;51.378;-1.342;2023-04-25T09:03:58;3;2;
61592;PMS5003;47485;51.378;-1.342;2023-04-25T09:06:25;3;1;
61592;PMS5003;47485;51.378;-1.342;2023-04-25T09:08:52;2;1;
61592;PMS5003;47485;51.378;-1.342;2023-04-25T09:11:19;1;1;
61592;PMS5003;47485;51.378;-1.342;2023-04-25T09:13:45;2;2;
61592;PMS5003;47485;51.378;-1.342;2023-04-25T09:16:12;1;1;
61592;PMS5003;47485;51.378;-1.342;2023-04-25T09:18:39;3;1;
61592;PMS5003;47485;51.378;-1.342;2023-04-25T09:21:07;3;1;
61592;PMS5003;47485;51.378;-1.342;2023-04-25T09:23:39;3;3;
61592;PMS5003;47485;51.378;-1.342;2023-04-25T09:26:07;4;2;
61592;PMS5003;47485;51.378;-1.342;2023-04-25T09:28:35;4;2;
61592;PMS5003;47485;51.378;-1.342;2023-04-25T09:31:02;3;2;
61592;PMS5003;47485;51.378;-1.342;2023-04-25T09:33:31;3;0;
61592;PMS5003;47485;51.378;-1.342;2023-04-25T09:36:01;2;1;
61592;PMS5003;47485;51.378;-1.342;2023-04-25T09:38:30;1;1;
61592;PMS5003;47485;51.378;-1.342;2023-04-25T09:40:57;2;2;
61592;PMS5003;47485;51.378;-1.342;2023-04-25T09:43:25;3;2;
61592;PMS5003;47485;51.378;-1.342;2023-04-25T09:45:53;2;2;
61592;PMS5003;47485;51.378;-1.342;2023-04-25T09:48:21;3;3;
61592;PMS5003;47485;51.378;-1.342;2023-04-25T09:50:52;3;2;
61592;PMS5003;47485;51.378;-1.342;2023-04-25T09:53:31;3;2;
61592;PMS5003;47485;51.378;-1.342;2023-04-25T09:55:59;0;0;
61592;PMS5003;47485;51.378;-1.342;2023-04-25T09:58:29;1;1;
61592;PMS5003;47485;51.378;-1.342;2023-04-25T10:00:58;4;4;
61592;PMS5003;47485;51.378;-1.342;2023-04-25T10:03:28;3;2;
61592;PMS5003;47485;51.378;-1.342;2023-04-25T10:05:57;3;3;
61592;PMS5003;47485;51.378;-1.342;2023-04-25T10:08:28;3;3;
61592;PMS5003;47485;51.378;-1.342;2023-04-25T10:11:00;3;2;
61592;PMS5003;47485;51.378;-1.342;2023-04-25T10:13:28;5;4;
61592;PMS5003;47485;51.378;-1.342;2023-04-25T10:15:55;4;4;
61592;PMS5003;47485;51.378;-1.342;2023-04-25T10:18:22;5;5;
61592;PMS5003;47485;51.378;-1.342;2023-04-25T10:20:50;6;4;
61592;PMS5003;47485;51.378;-1.342;2023-04-25T10:23:17;3;3;
61592;PMS5003;47485;51.378;-1.342;2023-04-25T10:25:44;3;3;
61592;PMS5003;47485;51.378;-1.342;2023-04-25T10:28:11;3;3;
61592;PMS5003;47485;51.378;-1.342;2023-04-25T10:30:38;4;3;
61592;PMS5003;47485;51.378;-1.342;2023-04-25T10:33:29;4;3;
61592;PMS5003;47485;51.378;-1.342;2023-04-25T10:35:58;4;4;
61592;PMS5003;47485;51.378;-1.342;2023-04-25T10:38:34;3;3;
61592;PMS5003;47485;51.378;-1.342;2023-04-25T10:41:04;4;3;
61592;PMS5003;47485;51.378;-1.342;2023-04-25T10:43:33;4;4;
61592;PMS5003;47485;51.378;-1.342;2023-04-25T10:46:02;5;2;
61592;PMS5003;47485;51.378;-1.342;2023-04-25T10:48:43;4;2;
61592;PMS5003;47485;51.378;-1.342;2023-04-25T10:51:15;9;6;
61592;PMS5003;47485;51.378;-1.342;2023-04-25T10:53:44;2;2;
61592;PMS5003;47485;51.378;-1.342;2023-04-25T10:56:11;2;1;
61592;PMS5003;47485;51.378;-1.342;2023-04-25T10:58:43;6;3;
61592;PMS5003;47485;51.378;-1.342;2023-04-25T11:01:11;6;3;
61592;PMS5003;47485;51.378;-1.342;2023-04-25T11:03:40;2;2;
61592;PMS5003;47485;51.378;-1.342;2023-04-25T11:06:11;7;4;
61592;PMS5003;47485;51.378;-1.342;2023-04-25T11:08:47;2;2;
61592;PMS5003;47485;51.378;-1.342;2023-04-25T11:11:16;2;1;
61592;PMS5003;47485;51.378;-1.342;2023-04-25T11:13:43;3;3;
61592;PMS5003;47485;51.378;-1.342;2023-04-25T11:16:10;7;5;
61592;PMS5003;47485;51.378;-1.342;2023-04-25T11:18:37;5;4;
61592;PMS5003;47485;51.378;-1.342;2023-04-25T11:21:04;4;2;
61592;PMS5003;47485;51.378;-1.342;2023-04-25T11:23:33;4;3;
61592;PMS5003;47485;51.378;-1.342;2023-04-25T11:26:01;5;5;
61592;PMS5003;47485;51.378;-1.342;2023-04-25T11:28:29;7;6;
61592;PMS5003;47485;51.378;-1.342;2023-04-25T11:30:56;3;3;
61592;PMS5003;47485;51.378;-1.342;2023-04-25T11:33:23;5;5;
61592;PMS5003;47485;51.378;-1.342;2023-04-25T11:35:51;5;3;
61592;PMS5003;47485;51.378;-1.342;2023-04-25T11:38:20;5;4;
61592;PMS5003;47485;51.378;-1.342;2023-04-25T11:40:49;11;10;
61592;PMS5003;47485;51.378;-1.342;2023-04-25T11:43:17;6;5;
61592;PMS5003;47485;51.378;-1.342;2023-04-25T11:45:46;6;6;
61592;PMS5003;47485;51.378;-1.342;2023-04-25T11:48:14;7;5;
61592;PMS5003;47485;51.378;-1.342;2023-04-25T11:50:41;4;4;
61592;PMS5003;47485;51.378;-1.342;2023-04-25T11:53:07;5;4;
61592;PMS5003;47485;51.378;-1.342;2023-04-25T11:55:34;6;6;
61592;PMS5003;47485;51.378;-1.342;2023-04-25T11:58:02;6;2;
61592;PMS5003;47485;51.378;-1.342;2023-04-25T12:00:30;4;4;
61592;PMS5003;47485;51.378;-1.342;2023-04-25T12:02:57;4;4;
61592;PMS5003;47485;51.378;-1.342;2023-04-25T12:05:25;7;5;
61592;PMS5003;47485;51.378;-1.342;2023-04-25T12:07:53;5;4;
61592;PMS5003;47485;51.378;-1.342;2023-04-25T12:10:20;4;4;
61592;PMS5003;47485;51.378;-1.342;2023-04-25T12:12:48;4;4;
61592;PMS5003;47485;51.378;-1.342;2023-04-25T12:15:15;5;4;
61592;PMS5003;47485;51.378;-1.342;2023-04-25T12:17:44;3;2;
61592;PMS5003;47485;51.378;-1.342;2023-04-25T12:20:12;3;3;
61592;PMS5003;47485;51.378;-1.342;2023-04-25T12:22:41;3;3;
61592;PMS5003;47485;51.378;-1.342;2023-04-25T12:25:08;4;4;
61592;PMS5003;47485;51.378;-1.342;2023-04-25T12:27:35;8;5;
61592;PMS5003;47485;51.378;-1.342;2023-04-25T12:30:02;5;5;
61592;PMS5003;47485;51.378;-1.342;2023-04-25T12:32:29;3;2;
61592;PMS5003;47485;51.378;-1.342;2023-04-25T12:34:56;7;4;
61592;PMS5003;47485;51.378;-1.342;2023-04-25T12:37:23;4;3;
61592;PMS5003;47485;51.378;-1.342;2023-04-25T12:39:50;5;5;
61592;PMS5003;47485;51.378;-1.342;2023-04-25T12:42:17;4;4;
61592;PMS5003;47485;51.378;-1.342;2023-04-25T12:44:44;3;2;
61592;PMS5003;47485;51.378;-1.342;2023-04-25T12:47:10;4;3;
61592;PMS5003;47485;51.378;-1.342;2023-04-25T12:49:37;4;4;
61592;PMS5003;47485;51.378;-1.342;2023-04-25T12:52:04;4;3;
61592;PMS5003;47485;51.378;-1.342;2023-04-25T12:54:31;6;5;
61592;PMS5003;47485;51.378;-1.342;2023-04-25T12:56:58;4;4;
61592;PMS5003;47485;51.378;-1.342;2023-04-25T12:59:24;4;4;
61592;PMS5003;47485;51.378;-1.342;2023-04-25T13:01:51;3;3;
61592;PMS5003;47485;51.378;-1.342;2023-04-25T13:04:18;5;5;
61592;PMS5003;47485;51.378;-1.342;2023-04-25T13:06:45;4;4;
61592;PMS5003;47485;51.378;-1.342;2023-04-25T13:09:12;6;6;
61592;PMS5003;47485;51.378;-1.342;2023-04-25T13:11:38;10;8;
61592;PMS5003;47485;51.378;-1.342;2023-04-25T13:14:05;9;4;
61592;PMS5003;47485;51.378;-1.342;2023-04-25T13:16:32;8;8;
61592;PMS5003;47485;51.378;-1.342;2023-04-25T13:18:59;7;7;
61592;PMS5003;47485;51.378;-1.342;2023-04-25T13:21:26;5;4;
61592;PMS5003;47485;51.378;-1.342;2023-04-25T13:23:53;5;5;
61592;PMS5003;47485;51.378;-1.342;2023-04-25T13:26:20;5;4;
61592;PMS5003;47485;51.378;-1.342;2023-04-25T13:28:46;8;6;
61592;PMS5003;47485;51.378;-1.342;2023-04-25T13:31:13;7;5;
61592;PMS5003;47485;51.378;-1.342;2023-04-25T13:33:40;5;4;
61592;PMS5003;47485;51.378;-1.342;2023-04-25T13:36:07;6;5;
61592;PMS5003;47485;51.378;-1.342;2023-04-25T13:38:34;7;4;
61592;PMS5003;47485;51.378;-1.342;2023-04-25T13:41:01;3;3;
61592;PMS5003;47485;51.378;-1.342;2023-04-25T13:43:28;6;6;
61592;PMS5003;47485;51.378;-1.342;2023-04-25T13:45:55;6;6;
61592;PMS5003;47485;51.378;-1.342;2023-04-25T13:48:22;7;5;
61592;PMS5003;47485;51.378;-1.342;2023-04-25T13:50:50;5;4;
61592;PMS5003;47485;51.378;-1.342;2023-04-25T13:53:17;7;7;
61592;PMS5003;47485;51.378;-1.342;2023-04-25T13:55:45;5;5;
61592;PMS5003;47485;51.378;-1.342;2023-04-25T13:58:11;9;8;
61592;PMS5003;47485;51.378;-1.342;2023-04-25T14:00:38;9;7;
61592;PMS5003;47485;51.378;-1.342;2023-04-25T14:03:07;6;6;
61592;PMS5003;47485;51.378;-1.342;2023-04-25T14:05:34;5;5;
61592;PMS5003;47485;51.378;-1.342;2023-04-25T14:08:02;5;5;
61592;PMS5003;47485;51.378;-1.342;2023-04-25T14:10:29;7;6;
61592;PMS5003;47485;51.378;-1.342;2023-04-25T14:12:56;6;6;
61592;PMS5003;47485;51.378;-1.342;2023-04-25T14:15:22;4;4;
61592;PMS5003;47485;51.378;-1.342;2023-04-25T14:17:50;8;5;
61592;PMS5003;47485;51.378;-1.342;2023-04-25T14:20:17;6;6;
61592;PMS5003;47485;51.378;-1.342;2023-04-25T14:22:44;6;6;
61592;PMS5003;47485;51.378;-1.342;2023-04-25T14:25:11;5;4;
61592;PMS5003;47485;51.378;-1.342;2023-04-25T14:27:39;8;6;
61592;PMS5003;47485;51.378;-1.342;2023-04-25T14:30:06;5;5;
61592;PMS5003;47485;51.378;-1.342;2023-04-25T14:32:34;7;5;
61592;PMS5003;47485;51.378;-1.342;2023-04-25T14:35:01;4;4;
61592;PMS5003;47485;51.378;-1.342;2023-04-25T14:37:29;5;4;
61592;PMS5003;47485;51.378;-1.342;2023-04-25T14:39:55;8;7;
61592;PMS5003;47485;51.378;-1.342;2023-04-25T14:42:22;6;5;
61592;PMS5003;47485;51.378;-1.342;2023-04-25T14:44:49;6;4;
61592;PMS5003;47485;51.378;-1.342;2023-04-25T14:47:16;7;5;
61592;PMS5003;47485;51.378;-1.342;2023-04-25T14:49:43;7;7;
61592;PMS5003;47485;51.378;-1.342;2023-04-25T14:52:10;5;5;
61592;PMS5003;47485;51.378;-1.342;2023-04-25T14:54:37;6;6;
61592;PMS5003;47485;51.378;-1.342;2023-04-25T14:57:03;7;7;
61592;PMS5003;47485;51.378;-1.342;2023-04-25T14:59:30;6;6;
61592;PMS5003;47485;51.378;-1.342;2023-04-25T15:01:57;7;6;
61592;PMS5003;47485;51.378;-1.342;2023-04-25T15:04:23;7;5;
61592;PMS5003;47485;51.378;-1.342;2023-04-25T15:06:50;8;8;
61592;PMS5003;47485;51.378;-1.342;2023-04-25T15:09:18;5;5;
61592;PMS5003;47485;51.378;-1.342;2023-04-25T15:11:44;8;5;
61592;PMS5003;47485;51.378;-1.342;2023-04-25T15:14:11;5;5;
61592;PMS5003;47485;51.378;-1.342;2023-04-25T15:16:38;8;6;
61592;PMS5003;47485;51.378;-1.342;2023-04-25T15:19:05;6;5;
61592;PMS5003;47485;51.378;-1.342;2023-04-25T15:21:31;7;6;
61592;PMS5003;47485;51.378;-1.342;2023-04-25T15:23:58;8;7;
61592;PMS5003;47485;51.378;-1.342;2023-04-25T15:26:26;8;6;
61592;PMS5003;47485;51.378;-1.342;2023-04-25T15:28:53;4;4;
61592;PMS5003;47485;51.378;-1.342;2023-04-25T15:31:20;5;4;
61592;PMS5003;47485;51.378;-1.342;2023-04-25T15:33:48;5;5;
61592;PMS5003;47485;51.378;-1.342;2023-04-25T15:36:14;5;5;
61592;PMS5003;47485;51.378;-1.342;2023-04-25T15:38:41;6;6;
61592;PMS5003;47485;51.378;-1.342;2023-04-25T15:41:08;4;4;
61592;PMS5003;47485;51.378;-1.342;2023-04-25T15:43:35;8;6;
61592;PMS5003;47485;51.378;-1.342;2023-04-25T15:46:02;5;5;
61592;PMS5003;47485;51.378;-1.342;2023-04-25T15:48:29;7;7;
61592;PMS5003;47485;51.378;-1.342;2023-04-25T15:50:56;9;5;
61592;PMS5003;47485;51.378;-1.342;2023-04-25T15:53:23;7;7;
61592;PMS5003;47485;51.378;-1.342;2023-04-25T15:55:49;8;5;
61592;PMS5003;47485;51.378;-1.342;2023-04-25T15:58:16;4;3;
61592;PMS5003;47485;51.378;-1.342;2023-04-25T16:00:43;5;5;
61592;PMS5003;47485;51.378;-1.342;2023-04-25T16:03:10;8;6;
61592;PMS5003;47485;51.378;-1.342;2023-04-25T16:05:37;10;6;
61592;PMS5003;47485;51.378;-1.342;2023-04-25T16:08:03;6;4;
61592;PMS5003;47485;51.378;-1.342;2023-04-25T16:10:30;4;4;
61592;PMS5003;47485;51.378;-1.342;2023-04-25T16:12:58;5;5;
61592;PMS5003;47485;51.378;-1.342;2023-04-25T16:15:25;5;4;
61592;PMS5003;47485;51.378;-1.342;2023-04-25T16:17:52;7;4;
61592;PMS5003;47485;51.378;-1.342;2023-04-25T16:20:19;5;4;
61592;PMS5003;47485;51.378;-1.342;2023-04-25T16:22:47;5;4;
61592;PMS5003;47485;51.378;-1.342;2023-04-25T16:25:13;6;4;
61592;PMS5003;47485;51.378;-1.342;2023-04-25T16:27:41;4;4;
61592;PMS5003;47485;51.378;-1.342;2023-04-25T16:30:09;7;5;
61592;PMS5003;47485;51.378;-1.342;2023-04-25T16:32:36;5;5;